Launceston, Australia
Current Conditions -  °F | °C
As of 11:00 PM on Friday 19 Dec 2014 (Local Time) from YMLT Reporting Station
Scattered Clouds Scattered Clouds  
Wind Chill: 50°   Ceiling: Unl
Heat Index: 50°   Visibility: 6mi
Dew Point: 39°   Wind: 9mph
Humidity: 66%   Direction: 350°N
Pressure: 29.94"   Gusts: NA
Location:  41.44°S, 147.14°E
Report Text: YMLT 191200Z AUTO 35008KT 9999 // SCT076 10/04 Q1014
Loading
Personal Weather Stations






























Interactive Weather Map New forecast layout! Learn more

10-Day Weather Forecast

Advertisements
Track Severe Weather on mobile